Bloomingdale, New York
Current Conditions -  °F | °C
As of 9:51 AM on Thursday 23 Oct 2014 (Local Time) from KSLK Reporting Station
Overcast Overcast  
Wind Chill: 31°   Ceiling: 800
Heat Index: 39°   Visibility: 8mi
Dew Point: 36°   Wind: 14mph
Humidity: 89%   Direction: 30°NNE
Pressure: 29.97"   Gusts: NA
Location:  44.41°N, 74.09°W
Report Text: KSLK 231351Z AUTO 03012KT 8SM OVC008 04/02 A2997 RMK AO2 SLP158 T00390022
Loading
Personal Weather Stations






























Interactive Weather Map New forecast layout! Learn more

10-Day Weather Forecast

Advertisements
Track Severe Weather on mobile